logo
Search for airport 
image banner adimage banner adimage banner ad
image banner ad

28VT - Mt Ascutney Hospital

Located in Windsor, United States

ICAO - 28VT, IATA -

Data provided by Airmate  

General information

Coordinates: N43°29'13" W72°24'11"
Elevation is 532 feet MSL.
 
View others Airports in Vermont

Operational data

Special qualification required
Current time UTC:
Current local time:
Weather at : KLEB - Lebanon Muni ( 17 km )
METAR: KLEB 131653Z 25013G20KT 10SM FEW040 SCT060 SCT095 10/01 A2941 RMK AO2 SLP959 T01000011
TAF: KLEB 131402Z 1314/1412 20010G17KT P6SM OVC035 FM131900 29010G18KT P6SM -SHRA OVC025 FM140500 31009KT P6SM BKN030
View NOTAMs / SUP AIP / TFR affecting this airport [VIEW]
Communications frequencies: [VIEW]

Runways:

Airport contact information

Address: Windsor United States

Satellite view of 28VT